createdAt,value
2017-05-08T04:24:28.320Z,804
2017-05-08T04:25:59.859Z,824
2017-05-08T04:27:30.314Z,856
2017-05-08T04:28:57.182Z,908
2017-05-08T04:30:28.067Z,980
2017-05-08T04:33:36.887Z,1048
2017-05-08T04:35:05.151Z,1148
2017-05-08T04:36:44.859Z,1088
2017-05-08T04:38:19.203Z,1216
2017-05-08T04:39:56.019Z,1312
2017-05-08T04:41:27.401Z,1332
2017-05-08T04:42:54.180Z,1360
2017-05-08T04:44:30.820Z,1380
2017-05-08T04:46:08.038Z,1392
2017-05-08T04:47:37.748Z,1332
2017-05-08T04:49:09.662Z,1400
2017-05-08T04:58:15.259Z,1844
2017-05-08T06:31:03.141Z,2484
2017-05-08T06:32:30.329Z,3288
2017-05-08T06:34:10.002Z,3192
2017-05-08T06:35:39.543Z,2612
2017-05-08T06:37:26.248Z,2292
2017-05-08T06:38:51.521Z,2564
2017-05-08T06:40:18.666Z,3132
2017-05-08T06:41:45.325Z,3252
2017-05-08T06:45:03.064Z,3080
2017-05-08T06:46:30.619Z,3740
2017-05-08T06:47:56.040Z,3136
2017-05-08T06:51:15.894Z,4496
2017-05-08T06:52:42.031Z,5064
2017-05-08T06:54:09.487Z,5220
2017-05-08T06:55:36.626Z,5024
2017-05-08T06:57:04.442Z,4764
2017-05-08T07:46:09.499Z,6832
2017-05-08T07:47:46.748Z,6964
2017-05-08T07:49:31.096Z,6212
2017-05-08T07:52:19.297Z,6428
2017-05-08T07:53:44.438Z,7028
2017-05-08T07:55:12.290Z,7240
2017-05-08T07:56:47.840Z,7080
2017-05-08T08:01:43.067Z,8796
2017-05-08T08:03:30.276Z,8936
2017-05-08T08:06:40.667Z,5676
2017-05-08T08:08:24.272Z,6176
2017-05-08T08:10:01.650Z,6884
2017-05-08T08:13:14.070Z,7024
2017-05-08T08:17:51.990Z,7740
2017-05-08T08:19:18.036Z,6656
2017-05-08T08:21:02.519Z,7916
2017-05-08T08:22:48.644Z,8148
2017-05-08T08:30:53.114Z,8228
2017-05-08T08:33:58.926Z,6808
2017-05-08T08:37:33.783Z,5256
2017-05-08T08:39:04.899Z,5432
2017-05-08T08:40:44.692Z,4960
2017-05-08T08:42:17.160Z,4856
2017-05-08T08:43:50.141Z,4732
2017-05-08T08:45:25.119Z,4356
2017-05-08T08:46:53.894Z,4856
2017-05-08T08:48:23.452Z,4624
2017-05-08T08:49:58.465Z,4632
2017-05-08T08:52:52.897Z,5288
2017-05-08T08:54:25.900Z,4908
2017-05-08T08:56:09.294Z,4940
2017-05-08T08:57:38.236Z,5480
2017-05-08T09:00:34.604Z,5276
2017-05-08T09:04:13.638Z,5500
2017-05-08T09:11:04.813Z,5448
2017-05-08T09:12:49.232Z,5940
2017-05-08T09:15:28.467Z,7792
2017-05-08T09:16:57.212Z,8508
2017-05-08T09:18:26.136Z,9840
2017-05-08T09:20:06.633Z,10512
2017-05-08T09:21:43.951Z,9232
2017-05-08T09:23:18.494Z,9408
2017-05-08T09:27:49.691Z,9084
2017-05-08T09:29:22.200Z,9628
2017-05-08T09:32:17.742Z,10864
2017-05-08T09:33:52.876Z,8332
2017-05-08T09:35:28.313Z,6452
2017-05-08T09:38:37.040Z,7436
2017-05-08T09:40:05.672Z,9476
2017-05-08T09:41:35.809Z,8940
2017-05-08T09:43:05.129Z,8888
2017-05-08T09:44:42.718Z,9512
2017-05-08T09:46:08.839Z,8140
2017-05-08T09:56:44.653Z,14880
2017-05-08T09:58:45.898Z,14252
2017-05-08T10:00:21.614Z,14592
2017-05-08T10:05:08.466Z,12004
2017-05-08T10:06:44.930Z,11868
2017-05-08T10:08:38.903Z,14944
2017-05-08T10:10:25.709Z,14108
2017-05-08T10:11:53.673Z,12096
2017-05-08T10:16:07.023Z,15648
2017-05-08T10:19:31.911Z,15808
2017-05-08T10:21:02.493Z,15520
2017-05-08T10:22:33.583Z,13932
2017-05-08T10:24:01.445Z,11528
2017-05-08T10:25:28.385Z,11556
2017-05-08T10:28:34.448Z,14148
2017-05-08T10:31:19.725Z,16640
2017-05-08T10:34:24.684Z,17248
2017-05-08T10:36:03.994Z,19264
2017-05-08T10:37:36.150Z,19520
2017-05-08T10:41:03.011Z,17248
2017-05-08T10:42:40.490Z,16448
2017-05-08T10:44:19.036Z,16064
2017-05-08T10:45:59.937Z,16256
2017-05-08T10:47:36.949Z,17472
2017-05-08T10:49:14.780Z,17952
2017-05-08T10:50:42.582Z,17984
2017-05-08T10:52:14.254Z,17792
2017-05-08T10:53:45.087Z,16160
2017-05-08T10:55:16.324Z,15200
2017-05-08T10:56:53.642Z,13620
2017-05-08T10:58:31.371Z,10760
2017-05-08T11:00:10.017Z,10644
2017-05-08T11:01:56.410Z,11900
2017-05-08T11:03:33.770Z,15520
2017-05-08T11:06:30.947Z,13420
2017-05-08T11:31:44.964Z,13976
2017-05-08T11:33:21.117Z,17856
2017-05-08T11:35:07.139Z,12552
2017-05-08T11:36:54.830Z,15168
2017-05-08T11:38:24.944Z,13076
2017-05-08T11:41:38.587Z,11340
2017-05-08T11:43:08.803Z,11708
2017-05-08T11:44:46.272Z,10872
2017-05-08T11:46:18.549Z,13260
2017-05-08T11:47:46.517Z,13364
2017-05-08T11:49:13.554Z,10368
2017-05-08T11:50:40.931Z,10624
2017-05-08T11:52:19.682Z,8952
2017-05-08T11:55:27.874Z,4416
2017-05-08T11:56:57.237Z,4304
2017-05-08T12:00:26.278Z,3356
2017-05-08T12:01:53.262Z,4580
2017-05-08T12:03:20.631Z,8980
2017-05-08T12:06:48.493Z,7464
2017-05-08T12:08:42.083Z,8184
2017-05-08T12:11:33.179Z,7048
2017-05-08T12:13:09.686Z,6972
2017-05-08T12:16:47.474Z,8544
2017-05-08T12:18:17.686Z,8868
2017-05-08T12:19:46.636Z,8576
2017-05-08T12:21:15.463Z,9724
2017-05-08T12:36:24.286Z,5776
2017-05-08T12:37:57.136Z,6200
2017-05-08T12:44:21.091Z,6484
2017-05-08T12:45:50.029Z,6768
2017-05-08T12:47:20.550Z,7016
2017-05-08T12:49:07.869Z,7364
2017-05-08T12:52:40.338Z,7828
2017-05-08T12:54:08.829Z,7572
2017-05-08T12:55:37.167Z,7724
2017-05-08T13:00:29.076Z,8368
2017-05-08T13:01:53.489Z,8360
2017-05-08T13:03:20.899Z,8056
2017-05-08T13:06:21.717Z,6760
2017-05-08T13:07:52.169Z,7564
2017-05-08T13:09:21.638Z,7640
2017-05-08T13:10:46.734Z,6556
2017-05-08T13:12:13.390Z,8540
2017-05-08T13:13:39.759Z,9420
2017-05-08T13:15:06.938Z,9996
2017-05-08T13:16:37.719Z,10704
2017-05-08T13:18:14.334Z,10316
2017-05-08T13:19:43.220Z,9924
2017-05-08T13:21:14.633Z,9556
2017-05-08T13:34:53.881Z,10764
2017-05-08T13:36:21.247Z,10768
2017-05-08T13:39:47.571Z,9860
2017-05-08T13:41:32.942Z,10932
2017-05-08T13:43:07.151Z,10184
2017-05-08T13:44:35.678Z,8612
2017-05-08T13:48:32.479Z,6608
2017-05-08T13:50:04.987Z,6592
2017-05-08T13:51:32.073Z,4180
2017-05-08T13:54:20.753Z,6948
2017-05-08T13:57:35.522Z,5060
2017-05-08T13:59:02.975Z,5944
2017-05-08T14:00:28.915Z,7136
2017-05-08T14:01:56.442Z,7128
2017-05-08T14:03:23.445Z,6488
2017-05-08T14:06:42.907Z,6072
2017-05-08T14:09:40.490Z,5756
2017-05-08T14:11:08.811Z,5524
2017-05-08T14:12:48.899Z,5432
2017-05-08T14:15:37.294Z,5248
2017-05-08T14:28:50.621Z,5284
2017-05-08T14:30:21.434Z,5096
2017-05-08T14:31:53.903Z,5032
2017-05-08T14:33:22.478Z,5012
2017-05-08T14:34:59.837Z,4828
2017-05-08T14:37:35.178Z,4868
2017-05-08T14:39:02.865Z,4068
2017-05-08T14:40:45.473Z,2576
2017-05-08T14:42:17.005Z,1868
2017-05-08T14:43:43.452Z,1684
2017-05-08T14:45:11.001Z,1580
2017-05-08T14:46:43.952Z,2656
2017-05-08T14:48:13.686Z,2868
2017-05-08T14:49:44.680Z,4096
2017-05-08T14:56:24.528Z,3864
2017-05-08T14:59:40.941Z,4852
2017-05-08T15:01:08.974Z,4968
2017-05-08T15:02:44.413Z,5144
2017-05-08T15:04:13.604Z,4900
2017-05-08T15:07:18.230Z,5604
2017-05-08T15:08:54.386Z,5732
2017-05-08T15:10:25.217Z,5352
2017-05-08T15:11:52.897Z,5608
2017-05-08T15:13:27.218Z,6420
2017-05-08T15:14:56.232Z,6684
2017-05-08T15:16:33.147Z,6564
2017-05-08T15:18:11.242Z,6000
2017-05-08T15:19:39.315Z,6456
2017-05-08T15:21:15.629Z,6168
2017-05-08T15:27:15.341Z,4264
2017-05-08T15:28:45.256Z,3572
2017-05-08T15:33:55.044Z,2704
2017-05-08T15:35:41.383Z,2516
2017-05-08T15:39:30.249Z,3684
2017-05-08T15:41:06.920Z,3296
2017-05-08T15:44:48.416Z,3428
2017-05-08T15:46:25.558Z,3616
2017-05-08T15:48:27.453Z,3416
2017-05-08T15:51:52.567Z,3280
2017-05-08T15:55:00.490Z,3952
2017-05-08T15:56:40.725Z,3916
2017-05-08T16:05:08.331Z,3424
2017-05-08T16:08:31.082Z,3320
2017-05-08T16:10:17.510Z,3252
2017-05-08T16:15:52.752Z,3156
2017-05-08T16:17:32.323Z,3196
2017-05-08T16:19:02.480Z,3248
2017-05-08T16:20:36.827Z,3320
2017-05-08T16:25:30.599Z,3752
2017-05-08T16:28:17.023Z,3732
2017-05-08T16:29:55.308Z,3740
2017-05-08T16:31:42.352Z,3684
2017-05-08T16:33:11.232Z,3568
2017-05-08T16:34:48.963Z,3360
2017-05-08T16:36:21.744Z,3464
2017-05-08T16:38:11.733Z,3436
2017-05-08T16:39:50.436Z,3420
2017-05-08T16:45:14.422Z,2316
2017-05-08T16:46:51.640Z,2300
2017-05-08T16:50:25.567Z,1972
2017-05-08T16:53:49.963Z,2876
2017-05-08T16:55:20.562Z,2840
2017-05-08T17:01:03.221Z,2268
2017-05-08T17:02:38.810Z,2052
2017-05-08T17:05:50.422Z,2000
2017-05-08T17:08:31.682Z,1676
2017-05-08T17:10:00.525Z,1564
2017-05-08T17:11:29.768Z,1488
2017-05-08T17:13:07.834Z,1412
2017-05-08T17:15:08.839Z,1540
2017-05-08T17:16:53.773Z,1568
2017-05-08T17:18:27.966Z,1292
2017-05-08T17:20:10.631Z,1168
2017-05-08T17:21:40.341Z,1204
2017-05-08T17:24:58.528Z,620
2017-05-08T17:41:51.043Z,476
2017-05-08T17:43:30.372Z,428
2017-05-08T17:45:00.793Z,440
2017-05-08T17:46:39.918Z,312
2017-05-08T17:48:17.932Z,420
2017-05-08T17:49:54.607Z,428
2017-05-08T17:51:23.470Z,476
2017-05-08T17:53:00.538Z,268
2017-05-08T17:54:46.635Z,232
2017-05-08T17:56:43.829Z,236
2017-05-08T17:58:24.035Z,220
2017-05-08T18:00:29.065Z,168
2017-05-08T18:02:26.339Z,132
2017-05-08T18:03:53.748Z,116
2017-05-08T18:05:18.763Z,112
2017-05-08T18:06:44.986Z,108
2017-05-08T18:08:22.674Z,164
2017-05-08T18:09:47.974Z,152
2017-05-08T18:11:15.016Z,184
2017-05-08T18:12:50.250Z,168
2017-05-08T18:14:14.937Z,148
2017-05-08T18:17:19.419Z,124
2017-05-08T18:18:45.670Z,88
2017-05-08T18:20:13.982Z,108
2017-05-08T18:21:39.260Z,104
2017-05-08T18:23:07.326Z,92
2017-05-08T18:24:33.296Z,76
2017-05-08T18:26:03.394Z,80
2017-05-08T18:27:31.414Z,72
2017-05-08T18:28:57.879Z,76
2017-05-08T18:30:26.189Z,92
2017-05-08T18:31:53.636Z,100
2017-05-08T18:33:19.997Z,68
2017-05-08T18:34:59.579Z,40
2017-05-08T18:36:25.741Z,20
2017-05-08T18:39:25.578Z,20
2017-05-08T18:43:56.213Z,16
2017-05-08T18:45:27.260Z,20
2017-05-08T18:46:52.596Z,16
2017-05-08T18:48:17.962Z,12
2017-05-08T18:51:38.055Z,8
2017-05-08T18:53:18.452Z,4
2017-05-08T18:54:53.912Z,4
2017-05-08T18:56:19.498Z,0
2017-05-08T18:57:54.068Z,4
2017-05-08T18:59:20.853Z,0
2017-05-08T19:00:59.956Z,0
2017-05-08T19:02:37.480Z,4
2017-05-08T19:04:11.115Z,0
2017-05-08T19:05:41.460Z,0
2017-05-08T19:07:08.798Z,0
2017-05-08T19:08:58.150Z,0
2017-05-08T19:10:23.587Z,0
2017-05-08T19:11:53.441Z,0
2017-05-08T19:14:44.167Z,0
2017-05-08T19:19:09.839Z,0
2017-05-08T19:23:36.775Z,0
2017-05-08T19:25:22.441Z,0
2017-05-08T19:28:43.604Z,0
2017-05-08T19:30:29.340Z,0
2017-05-08T19:31:59.653Z,0
2017-05-08T19:33:39.602Z,0
2017-05-08T19:35:06.951Z,0
2017-05-08T19:36:35.472Z,0
2017-05-08T19:38:09.116Z,0
2017-05-08T19:39:50.605Z,0
2017-05-08T19:43:03.513Z,0
2017-05-08T19:48:01.442Z,0
2017-05-08T19:49:36.587Z,0
2017-05-08T19:51:03.749Z,0
2017-05-08T19:52:41.023Z,0
2017-05-08T19:54:07.916Z,0
2017-05-08T19:55:34.932Z,0
2017-05-08T20:08:20.590Z,0
2017-05-08T20:11:15.169Z,0
2017-05-08T20:16:04.022Z,0
2017-05-08T20:17:49.252Z,0
2017-05-08T20:19:45.683Z,0
2017-05-08T20:21:09.654Z,0
2017-05-08T20:23:02.603Z,0
2017-05-08T20:25:30.678Z,0
2017-05-08T20:26:58.128Z,0
2017-05-08T20:28:25.299Z,0
2017-05-08T20:30:07.895Z,0
2017-05-08T20:31:33.869Z,0
2017-05-08T20:33:02.917Z,0
2017-05-08T20:35:52.399Z,0
2017-05-08T20:39:22.662Z,0
2017-05-08T20:41:10.648Z,0
2017-05-08T20:42:47.865Z,0
2017-05-08T20:44:22.506Z,0
2017-05-08T20:46:11.401Z,0
2017-05-08T20:53:24.187Z,0
2017-05-08T21:38:39.178Z,0
2017-05-08T22:19:27.590Z,0
